Gilchrist, Texas
Current Conditions -  °F | °C
As of 7:15 PM on Tuesday 21 Oct 2014 (Local Time) from KXIH Reporting Station
Clear Clear  
Wind Chill: 75°   Ceiling: Unl
Heat Index: 75°   Visibility: 10mi
Dew Point: 59°   Wind: 16mph
Humidity: 57%   Direction: 90°E
Pressure: 29.98"   Gusts: NA
Location:  29.51°N, 94.49°W
Report Text: KXIH 220015Z AUTO 09014KT 10SM CLR 24/15 A2998 RMK A01
Loading
Personal Weather Stations






























Interactive Weather Map
Tropical Storm Tracking
New forecast layout! Learn more

10-Day Weather Forecast

Advertisements
Track Severe Weather on mobile